createdAt,value
2017-02-24T00:01:10.680Z,0
2017-02-24T00:06:28.111Z,0
2017-02-24T00:11:44.033Z,0
2017-02-24T00:16:59.631Z,0
2017-02-24T00:22:15.268Z,0
2017-02-24T00:27:31.898Z,0
2017-02-24T00:32:48.428Z,0
2017-02-24T00:38:04.487Z,0
2017-02-24T00:43:21.446Z,0
2017-02-24T00:48:37.389Z,0
2017-02-24T00:53:53.111Z,0
2017-02-24T00:59:10.640Z,0
2017-02-24T01:04:26.237Z,0
2017-02-24T01:09:41.848Z,0
2017-02-24T01:14:57.598Z,0
2017-02-24T01:20:13.174Z,0
2017-02-24T01:25:28.929Z,0
2017-02-24T01:30:44.529Z,0
2017-02-24T01:36:00.874Z,0
2017-02-24T01:41:16.451Z,0
2017-02-24T01:46:32.143Z,0
2017-02-24T01:51:47.836Z,0
2017-02-24T01:57:04.016Z,0
2017-02-24T02:02:20.124Z,0
2017-02-24T02:07:35.695Z,0
2017-02-24T02:12:51.294Z,0
2017-02-24T02:18:06.865Z,0
2017-02-24T02:23:22.456Z,0
2017-02-24T02:28:38.225Z,0
2017-02-24T02:33:54.109Z,0
2017-02-24T02:39:10.291Z,0
2017-02-24T02:44:26.179Z,0
2017-02-24T02:49:41.757Z,0
2017-02-24T02:54:57.348Z,0
2017-02-24T03:00:12.960Z,0
2017-02-24T03:05:28.590Z,0
2017-02-24T03:10:44.655Z,0
2017-02-24T03:16:00.236Z,0
2017-02-24T03:21:15.803Z,0
2017-02-24T03:26:31.353Z,0
2017-02-24T03:31:46.958Z,0
2017-02-24T03:37:03.101Z,0
2017-02-24T03:42:20.041Z,0
2017-02-24T03:47:37.076Z,0
2017-02-24T03:52:53.124Z,0
2017-02-24T03:58:09.413Z,0
2017-02-24T04:03:25.039Z,0
2017-02-24T04:08:40.934Z,0
2017-02-24T04:13:56.874Z,0
2017-02-24T04:19:12.450Z,0
2017-02-24T04:24:28.016Z,0
2017-02-24T04:29:43.756Z,0
2017-02-24T04:34:59.705Z,0
2017-02-24T04:40:15.672Z,0
2017-02-24T04:45:31.236Z,0
2017-02-24T04:50:46.840Z,0
2017-02-24T04:56:03.172Z,0
2017-02-24T05:01:19.030Z,0
2017-02-24T05:06:34.684Z,0
2017-02-24T05:11:50.497Z,0
2017-02-24T05:17:07.387Z,0
2017-02-24T05:22:23.032Z,0
2017-02-24T05:27:38.734Z,0
2017-02-24T05:32:54.332Z,0
2017-02-24T05:38:10.268Z,0
2017-02-24T05:43:26.199Z,0
2017-02-24T05:48:41.842Z,0
2017-02-24T05:53:57.413Z,0
2017-02-24T05:59:13.063Z,0
2017-02-24T06:04:28.632Z,0
2017-02-24T06:09:44.418Z,0
2017-02-24T06:15:00.297Z,0
2017-02-24T06:20:15.900Z,0
2017-02-24T06:25:31.508Z,0
2017-02-24T06:30:47.078Z,0
2017-02-24T06:36:02.641Z,0
2017-02-24T06:41:18.235Z,0
2017-02-24T06:46:34.124Z,0
2017-02-24T06:51:49.732Z,0
2017-02-24T06:57:05.747Z,0
2017-02-24T07:02:23.059Z,0
2017-02-24T07:07:39.002Z,0
2017-02-24T07:12:54.774Z,0
2017-02-24T07:18:10.383Z,0
2017-02-24T07:23:25.947Z,0
2017-02-24T07:28:41.550Z,8
2017-02-24T07:33:57.140Z,32
2017-02-24T07:39:12.747Z,64
2017-02-24T07:44:28.367Z,100
2017-02-24T07:49:48.085Z,164
2017-02-24T07:55:04.770Z,248
2017-02-24T08:00:20.538Z,372
2017-02-24T08:05:36.749Z,640
2017-02-24T08:10:52.315Z,676
2017-02-24T08:16:08.048Z,684
2017-02-24T08:21:23.645Z,668
2017-02-24T08:27:13.641Z,876
2017-02-24T08:32:29.257Z,896
2017-02-24T09:30:07.704Z,48
2017-02-24T09:31:44.016Z,8
2017-02-24T09:37:49.399Z,4
2017-02-24T09:43:58.378Z,4
2017-02-24T09:49:13.573Z,4
2017-02-24T09:54:29.284Z,4
2017-02-24T09:59:47.798Z,8
2017-02-24T10:05:02.627Z,8
2017-02-24T10:11:30.399Z,8
2017-02-24T10:17:45.002Z,4
2017-02-24T10:23:49.279Z,4
2017-02-24T10:29:50.297Z,8
2017-02-24T10:35:40.689Z,4
2017-02-24T10:41:42.599Z,8
2017-02-24T10:48:19.765Z,8
2017-02-24T10:54:13.904Z,12
2017-02-24T11:00:20.856Z,8
2017-02-24T11:06:12.384Z,12
2017-02-24T11:12:08.820Z,8
2017-02-24T11:17:59.860Z,12
2017-02-24T11:24:01.053Z,12
2017-02-24T11:30:03.759Z,8
2017-02-24T11:36:06.389Z,12
2017-02-24T11:41:58.996Z,8
2017-02-24T11:47:49.598Z,12
2017-02-24T11:53:05.137Z,8
2017-02-24T11:58:55.432Z,12
2017-02-24T12:04:45.663Z,8
2017-02-24T12:10:02.233Z,8
2017-02-24T12:16:04.574Z,12
2017-02-24T12:21:20.346Z,8
2017-02-24T12:26:36.113Z,8
2017-02-24T12:32:26.403Z,12
2017-02-24T12:38:34.560Z,12
2017-02-24T12:44:23.566Z,8
2017-02-24T12:49:39.635Z,8
2017-02-24T12:55:29.848Z,8
2017-02-24T13:01:21.258Z,8
2017-02-24T13:06:36.841Z,8
2017-02-24T13:11:52.358Z,8
2017-02-24T13:17:07.965Z,12
2017-02-24T13:22:23.494Z,8
2017-02-24T13:28:35.923Z,8
2017-02-24T13:34:40.235Z,16
2017-02-24T13:40:38.896Z,8
2017-02-24T13:46:32.318Z,8
2017-02-24T13:52:23.583Z,8
2017-02-24T13:58:33.549Z,8
2017-02-24T14:06:38.341Z,8
2017-02-24T14:07:46.252Z,8
2017-02-24T14:15:29.617Z,8
2017-02-24T14:21:36.120Z,4
2017-02-24T14:27:36.791Z,12
2017-02-24T14:33:56.212Z,8
2017-02-24T14:40:34.042Z,12
2017-02-24T14:48:01.653Z,12
2017-02-24T14:56:50.731Z,8
2017-02-24T14:58:27.897Z,12
2017-02-24T15:04:45.503Z,8
2017-02-24T15:11:23.045Z,8
2017-02-24T15:18:15.759Z,12
2017-02-24T15:24:27.098Z,8
2017-02-24T15:30:56.153Z,12
2017-02-24T15:37:04.689Z,12
2017-02-24T15:43:21.310Z,8
2017-02-24T15:50:32.581Z,8
2017-02-24T15:58:13.466Z,8
2017-02-24T16:04:05.631Z,8
2017-02-24T16:10:06.209Z,8
2017-02-24T16:11:06.859Z,8
2017-02-24T16:17:07.438Z,8
2017-02-24T16:23:07.531Z,8
2017-02-24T16:29:08.004Z,8
2017-02-24T16:35:11.436Z,4
2017-02-24T16:41:12.997Z,4
2017-02-24T16:47:02.832Z,4
2017-02-24T16:53:33.228Z,4
2017-02-24T16:59:33.382Z,8
2017-02-24T17:05:37.312Z,8
2017-02-24T17:12:27.322Z,8
2017-02-24T17:18:29.855Z,8
2017-02-24T17:23:44.904Z,8
2017-02-24T17:29:44.306Z,8
2017-02-24T17:35:34.751Z,8
2017-02-24T17:41:33.769Z,8
2017-02-24T17:47:33.311Z,8
2017-02-24T17:53:34.001Z,8
2017-02-24T17:59:36.482Z,8
2017-02-24T18:05:33.053Z,8
2017-02-24T18:11:35.994Z,8
2017-02-24T18:17:51.795Z,4
2017-02-24T18:24:08.506Z,4
2017-02-24T18:30:12.200Z,4
2017-02-24T18:35:39.604Z,8
2017-02-24T18:41:29.702Z,4
2017-02-24T18:47:21.011Z,4
2017-02-24T18:52:49.440Z,4
2017-02-24T18:58:07.090Z,4
2017-02-24T19:03:22.609Z,4
2017-02-24T19:09:12.929Z,4
2017-02-24T19:14:28.553Z,4
2017-02-24T19:19:44.112Z,4
2017-02-24T19:25:34.425Z,4
2017-02-24T19:31:35.493Z,4
2017-02-24T19:36:51.310Z,4
2017-02-24T19:42:06.990Z,4
2017-02-24T19:47:22.560Z,4
2017-02-24T19:52:39.754Z,4
2017-02-24T19:57:56.351Z,4
2017-02-24T20:03:47.040Z,4
2017-02-24T20:09:37.132Z,4
2017-02-24T20:14:52.754Z,4
2017-02-24T20:20:08.284Z,4
2017-02-24T20:25:23.901Z,4
2017-02-24T20:30:39.364Z,4
2017-02-24T20:35:54.938Z,4
2017-02-24T20:41:10.464Z,4
2017-02-24T20:46:26.734Z,4
2017-02-24T20:51:42.474Z,4
2017-02-24T20:57:32.742Z,4
2017-02-24T21:03:23.022Z,4
2017-02-24T21:08:38.594Z,4
2017-02-24T21:13:54.178Z,4
2017-02-24T21:19:09.720Z,4
2017-02-24T21:24:25.400Z,4
2017-02-24T21:29:41.002Z,4
2017-02-24T21:34:56.572Z,4
2017-02-24T21:40:12.131Z,4
2017-02-24T21:45:27.673Z,4
2017-02-24T21:50:43.234Z,4
2017-02-24T21:55:58.790Z,0
2017-02-24T22:01:14.329Z,0
2017-02-24T22:06:29.967Z,0
2017-02-24T22:11:45.503Z,0
2017-02-24T22:17:01.085Z,0
2017-02-24T22:22:16.606Z,0
2017-02-24T22:27:32.196Z,0
2017-02-24T22:32:47.731Z,0
2017-02-24T22:38:03.375Z,0
2017-02-24T22:43:18.919Z,0
2017-02-24T22:48:34.461Z,0
2017-02-24T22:53:50.065Z,0
2017-02-24T22:59:05.582Z,0
2017-02-24T23:04:21.160Z,0
2017-02-24T23:09:36.669Z,0
2017-02-24T23:14:52.247Z,0
2017-02-24T23:20:07.771Z,0
2017-02-24T23:25:23.364Z,0
2017-02-24T23:30:38.900Z,0
2017-02-24T23:36:29.220Z,0
2017-02-24T23:42:19.558Z,0
2017-02-24T23:48:09.915Z,0
2017-02-24T23:54:00.119Z,0
2017-02-24T23:59:50.503Z,0
